createdAt,value
2019-06-08T00:00:58.828Z,15.63
2019-06-08T00:03:29.730Z,14.50
2019-06-08T00:06:00.750Z,13.83
2019-06-08T00:08:31.446Z,14.37
2019-06-08T00:11:02.212Z,13.67
2019-06-08T00:13:33.183Z,13.40
2019-06-08T00:16:03.932Z,13.03
2019-06-08T00:18:34.642Z,13.13
2019-06-08T00:21:05.335Z,12.27
2019-06-08T00:23:36.312Z,12.10
2019-06-08T00:26:06.971Z,11.50
2019-06-08T00:28:37.908Z,10.87
2019-06-08T00:31:08.586Z,11.03
2019-06-08T00:33:39.540Z,10.73
2019-06-08T00:36:10.489Z,10.80
2019-06-08T00:38:41.449Z,10.43
2019-06-08T00:41:12.440Z,9.93
2019-06-08T00:43:43.495Z,7.73
2019-06-08T00:46:15.246Z,6.40
2019-06-08T00:48:46.248Z,5.77
2019-06-08T00:51:16.912Z,5.30
2019-06-08T00:53:47.947Z,5.33
2019-06-08T00:56:19.422Z,4.83
2019-06-08T00:58:50.169Z,4.70
2019-06-08T01:01:23.315Z,4.07
2019-06-08T01:03:53.507Z,2.77
2019-06-08T01:06:24.957Z,3.10
2019-06-08T01:08:55.691Z,2.63
2019-06-08T01:11:26.980Z,2.37
2019-06-08T01:13:57.996Z,2.57
2019-06-08T01:16:29.304Z,2.40
2019-06-08T01:19:00.454Z,2.50
2019-06-08T01:21:31.457Z,2.40
2019-06-08T01:24:03.543Z,2.40
2019-06-08T01:26:34.216Z,1.90
2019-06-08T01:29:05.252Z,1.90
2019-06-08T01:31:36.240Z,2.20
2019-06-08T01:34:06.915Z,1.80
2019-06-08T01:36:37.598Z,1.70
2019-06-08T01:39:08.845Z,1.63
2019-06-08T01:41:39.910Z,2.07
2019-06-08T01:44:10.923Z,1.80
2019-06-08T01:46:41.636Z,2.23
2019-06-08T01:49:12.347Z,1.73
2019-06-08T01:51:43.048Z,2.07
2019-06-08T01:54:13.718Z,1.40
2019-06-08T01:56:44.751Z,1.97
2019-06-08T01:59:15.490Z,1.90
2019-06-08T02:01:46.186Z,2.00
2019-06-08T02:04:16.868Z,1.77
2019-06-08T02:06:47.801Z,1.60
2019-06-08T02:09:18.486Z,1.97
2019-06-08T02:11:49.138Z,1.93
2019-06-08T02:14:19.829Z,1.57
2019-06-08T02:16:50.755Z,1.80
2019-06-08T02:19:21.717Z,1.67
2019-06-08T02:21:52.466Z,1.60
2019-06-08T02:24:23.460Z,1.60
2019-06-08T02:26:54.133Z,1.53
2019-06-08T02:29:25.105Z,2.00
2019-06-08T02:31:56.210Z,1.60
2019-06-08T02:34:28.333Z,1.63
2019-06-08T02:36:59.244Z,1.80
2019-06-08T02:39:30.397Z,1.60
2019-06-08T02:42:01.375Z,1.90
2019-06-08T02:44:34.444Z,1.67
2019-06-08T02:47:05.248Z,1.77
2019-06-08T02:49:37.555Z,1.90
2019-06-08T02:52:08.853Z,1.60
2019-06-08T02:54:41.427Z,1.70
2019-06-08T02:57:14.470Z,1.70
2019-06-08T02:59:48.320Z,1.80
2019-06-08T03:02:21.918Z,1.70
2019-06-08T03:04:56.476Z,2.20
2019-06-08T03:07:32.268Z,1.90
2019-06-08T03:10:06.120Z,1.80
2019-06-08T03:12:40.322Z,1.83
2019-06-08T03:15:15.631Z,1.60
2019-06-08T03:17:46.318Z,1.97
2019-06-08T03:20:17.022Z,1.80
2019-06-08T03:22:47.897Z,1.80
2019-06-08T03:25:47.344Z,1.77
2019-06-08T03:28:12.432Z,1.80
2019-06-08T03:30:52.411Z,1.90
2019-06-08T03:33:15.471Z,1.87
2019-06-08T03:35:55.842Z,1.97
2019-06-08T03:38:19.118Z,1.63
2019-06-08T03:40:49.781Z,1.90
2019-06-08T03:43:20.910Z,2.13
2019-06-08T03:45:51.835Z,2.00
2019-06-08T03:48:22.530Z,1.80
2019-06-08T03:50:53.193Z,2.00
2019-06-08T03:53:24.588Z,1.90
2019-06-08T03:55:55.362Z,1.80
2019-06-08T03:58:26.037Z,1.70
2019-06-08T04:00:56.885Z,1.77
2019-06-08T04:03:28.104Z,1.90
2019-06-08T04:05:58.912Z,1.93
2019-06-08T04:08:29.565Z,1.93
2019-06-08T04:11:00.275Z,2.00
2019-06-08T04:13:30.930Z,1.90
2019-06-08T04:16:01.715Z,1.90
2019-06-08T04:18:32.699Z,1.90
2019-06-08T04:21:03.691Z,2.00
2019-06-08T04:23:34.390Z,2.17
2019-06-08T04:26:05.103Z,2.00
2019-06-08T04:28:36.088Z,1.93
2019-06-08T04:31:06.745Z,2.00
2019-06-08T04:33:37.878Z,2.40
2019-06-08T04:36:08.710Z,2.00
2019-06-08T04:38:41.212Z,2.40
2019-06-08T04:41:12.070Z,2.03
2019-06-08T04:43:43.412Z,1.90
2019-06-08T04:46:15.562Z,2.07
2019-06-08T04:48:47.893Z,2.00
2019-06-08T04:51:19.059Z,1.90
2019-06-08T04:53:50.146Z,1.97
2019-06-08T04:56:20.894Z,1.90
2019-06-08T04:58:52.039Z,1.87
2019-06-08T05:01:22.739Z,1.60
2019-06-08T05:03:53.449Z,1.97
2019-06-08T05:06:24.477Z,1.87
2019-06-08T05:08:55.551Z,1.73
2019-06-08T05:11:26.284Z,1.53
2019-06-08T05:13:57.643Z,1.83
2019-06-08T05:16:28.581Z,1.70
2019-06-08T05:18:59.559Z,1.40
2019-06-08T05:21:30.524Z,1.63
2019-06-08T05:24:01.208Z,1.23
2019-06-08T05:26:32.206Z,1.47
2019-06-08T05:29:03.004Z,1.20
2019-06-08T05:31:33.983Z,1.40
2019-06-08T05:34:05.051Z,1.30
2019-06-08T05:36:35.748Z,1.60
2019-06-08T05:39:08.413Z,1.40
2019-06-08T05:41:39.421Z,1.40
2019-06-08T05:44:10.171Z,1.50
2019-06-08T05:46:41.762Z,1.30
2019-06-08T05:49:12.828Z,1.60
2019-06-08T05:51:43.821Z,1.40
2019-06-08T05:54:15.789Z,1.40
2019-06-08T05:56:46.479Z,1.30
2019-06-08T05:59:17.606Z,1.33
2019-06-08T06:01:48.625Z,1.77
2019-06-08T06:04:19.371Z,1.60
2019-06-08T06:06:50.951Z,1.20
2019-06-08T06:09:22.077Z,1.60
2019-06-08T06:11:53.018Z,1.30
2019-06-08T06:14:24.000Z,1.53
2019-06-08T06:16:55.019Z,1.40
2019-06-08T06:19:25.922Z,1.33
2019-06-08T06:21:56.884Z,1.40
2019-06-08T06:24:27.843Z,1.47
2019-06-08T06:26:58.856Z,1.33
2019-06-08T06:29:29.884Z,1.40
2019-06-08T06:32:00.585Z,1.63
2019-06-08T06:34:31.500Z,1.17
2019-06-08T06:37:02.467Z,1.37
2019-06-08T06:39:33.431Z,1.80
2019-06-08T06:42:04.128Z,1.73
2019-06-08T06:44:35.087Z,1.60
2019-06-08T06:47:06.087Z,1.60
2019-06-08T06:49:37.064Z,1.30
2019-06-08T06:52:07.737Z,1.70
2019-06-08T06:54:38.410Z,1.67
2019-06-08T06:57:09.367Z,1.57
2019-06-08T06:59:40.304Z,1.40
2019-06-08T07:02:11.285Z,1.57
2019-06-08T07:04:42.199Z,1.40
2019-06-08T07:07:13.169Z,1.30
2019-06-08T07:09:44.383Z,1.30
2019-06-08T07:12:15.392Z,1.63
2019-06-08T07:14:47.004Z,1.40
2019-06-08T07:17:18.070Z,1.40
2019-06-08T07:19:48.748Z,1.27
2019-06-08T07:22:19.745Z,1.40
2019-06-08T07:24:50.445Z,1.40
2019-06-08T07:27:21.114Z,1.40
2019-06-08T07:29:52.650Z,1.33
2019-06-08T07:32:23.626Z,1.50
2019-06-08T07:34:55.341Z,1.30
2019-06-08T07:37:26.414Z,1.60
2019-06-08T07:39:57.186Z,1.20
2019-06-08T07:42:28.143Z,1.50
2019-06-08T07:45:00.369Z,1.30
2019-06-08T07:47:31.617Z,1.00
2019-06-08T07:50:04.661Z,1.30
2019-06-08T07:52:35.288Z,1.63
2019-06-08T07:55:07.274Z,1.30
2019-06-08T07:57:37.949Z,1.70
2019-06-08T08:00:09.914Z,1.20
2019-06-08T08:02:40.881Z,1.40
2019-06-08T08:05:12.555Z,1.30
2019-06-08T08:07:43.569Z,1.50
2019-06-08T08:10:15.792Z,1.53
2019-06-08T08:12:46.537Z,1.40
2019-06-08T08:15:18.834Z,1.40
2019-06-08T08:17:52.225Z,1.13
2019-06-08T08:20:22.156Z,1.20
2019-06-08T08:22:57.573Z,1.40
2019-06-08T08:25:28.016Z,1.40
2019-06-08T08:28:00.632Z,1.50
2019-06-08T08:30:30.518Z,1.60
2019-06-08T08:33:03.137Z,1.40
2019-06-08T08:35:33.577Z,1.20
2019-06-08T08:38:04.758Z,1.50
2019-06-08T08:40:38.602Z,1.13
2019-06-08T08:43:09.464Z,1.53
2019-06-08T08:45:41.693Z,1.30
2019-06-08T08:48:24.552Z,1.50
2019-06-08T08:50:45.315Z,1.40
2019-06-08T08:53:18.076Z,1.40
2019-06-08T08:55:49.839Z,1.23
2019-06-08T08:58:21.202Z,1.70
2019-06-08T09:00:53.707Z,1.43
2019-06-08T09:03:29.709Z,1.70
2019-06-08T09:06:00.567Z,1.70
2019-06-08T09:08:30.766Z,1.57
2019-06-08T09:11:03.556Z,1.30
2019-06-08T09:13:34.197Z,1.67
2019-06-08T09:16:07.799Z,1.43
2019-06-08T09:18:37.692Z,1.60
2019-06-08T09:21:08.644Z,1.47
2019-06-08T09:23:39.615Z,1.40
2019-06-08T09:26:13.142Z,1.63
2019-06-08T09:28:43.237Z,1.60
2019-06-08T09:31:14.177Z,1.70
2019-06-08T09:33:53.297Z,1.30
2019-06-08T09:36:18.490Z,1.60
2019-06-08T09:38:49.178Z,1.30
2019-06-08T09:41:20.629Z,1.50
2019-06-08T09:43:53.880Z,1.77
2019-06-08T09:46:24.299Z,1.60
2019-06-08T09:48:58.391Z,1.70
2019-06-08T09:51:28.524Z,1.50
2019-06-08T09:54:02.670Z,1.60
2019-06-08T09:56:32.075Z,1.60
2019-06-08T09:59:06.117Z,1.53
2019-06-08T10:01:38.267Z,1.50
2019-06-08T10:04:09.300Z,1.70
2019-06-08T10:06:41.057Z,1.50
2019-06-08T10:09:11.901Z,1.83
2019-06-08T10:11:42.899Z,1.60
2019-06-08T10:14:13.912Z,1.70
2019-06-08T10:16:44.647Z,1.70
2019-06-08T10:19:18.482Z,1.53
2019-06-08T10:21:48.229Z,1.40
2019-06-08T10:24:19.089Z,1.70
2019-06-08T10:26:50.062Z,1.63
2019-06-08T10:29:21.940Z,1.60
2019-06-08T10:31:53.006Z,1.53
2019-06-08T10:34:23.670Z,1.60
2019-06-08T10:36:55.526Z,1.60
2019-06-08T10:39:28.354Z,1.70
2019-06-08T10:42:01.457Z,1.60
2019-06-08T10:44:32.332Z,1.63
2019-06-08T10:47:05.547Z,1.50
2019-06-08T10:49:38.264Z,1.63
2019-06-08T10:52:10.800Z,1.40
2019-06-08T10:54:41.320Z,1.47
2019-06-08T10:57:12.330Z,1.60
2019-06-08T10:59:43.292Z,1.70
2019-06-08T11:02:14.822Z,1.60
2019-06-08T11:04:45.537Z,1.77
2019-06-08T11:07:16.657Z,1.40
2019-06-08T11:09:48.166Z,1.50
2019-06-08T11:12:21.353Z,1.50
2019-06-08T11:14:52.045Z,3.10
2019-06-08T11:17:23.017Z,10.60
2019-06-08T11:19:53.791Z,1.60
2019-06-08T11:22:24.881Z,2.10
2019-06-08T11:24:58.441Z,1.80
2019-06-08T11:27:30.297Z,1.30
2019-06-08T11:30:05.877Z,1.50
2019-06-08T11:32:33.902Z,1.70
2019-06-08T11:35:10.478Z,1.33
2019-06-08T11:37:40.935Z,1.50
2019-06-08T11:40:13.107Z,1.67
2019-06-08T11:42:44.102Z,1.90
2019-06-08T11:45:17.551Z,1.43
2019-06-08T11:47:48.525Z,1.30
2019-06-08T11:50:43.239Z,1.43
2019-06-08T11:53:14.935Z,1.37
2019-06-08T11:55:50.665Z,1.40
2019-06-08T11:58:22.787Z,1.40
2019-06-08T12:01:01.862Z,1.27
2019-06-08T12:03:32.070Z,1.40
2019-06-08T12:06:04.206Z,1.53
2019-06-08T12:08:37.960Z,1.30
2019-06-08T12:11:11.539Z,1.30
2019-06-08T12:13:40.650Z,1.43
2019-06-08T12:16:15.726Z,1.60
2019-06-08T12:18:45.419Z,1.40
2019-06-08T12:21:18.406Z,1.63
2019-06-08T12:23:48.776Z,1.17
2019-06-08T12:26:19.716Z,1.40
2019-06-08T12:28:50.678Z,1.20
2019-06-08T12:31:22.693Z,1.63
2019-06-08T12:33:53.997Z,1.47
2019-06-08T12:36:24.664Z,1.37
2019-06-08T12:38:55.466Z,1.10
2019-06-08T12:41:31.170Z,1.43
2019-06-08T12:43:58.909Z,1.60
2019-06-08T12:46:29.570Z,1.50
2019-06-08T12:49:00.234Z,1.40
2019-06-08T12:51:31.413Z,1.30
2019-06-08T12:54:02.446Z,1.23
2019-06-08T12:56:33.415Z,1.60
2019-06-08T12:59:04.154Z,1.50
2019-06-08T13:01:35.174Z,1.63
2019-06-08T13:04:07.391Z,1.20
2019-06-08T13:06:40.799Z,1.23
2019-06-08T13:09:11.987Z,1.40
2019-06-08T13:11:43.458Z,1.43
2019-06-08T13:14:14.788Z,1.37
2019-06-08T13:16:45.813Z,1.37
2019-06-08T13:19:17.375Z,1.20
2019-06-08T13:21:48.614Z,1.50
2019-06-08T13:24:19.456Z,1.47
2019-06-08T13:26:50.855Z,1.30
2019-06-08T13:29:22.289Z,1.37
2019-06-08T13:31:54.430Z,1.40
2019-06-08T13:34:25.377Z,1.57
2019-06-08T13:36:56.342Z,1.40
2019-06-08T13:39:28.020Z,1.40
2019-06-08T13:41:59.002Z,1.50
2019-06-08T13:44:29.717Z,1.70
2019-06-08T13:47:00.679Z,1.60
2019-06-08T13:49:32.464Z,1.53
2019-06-08T13:52:03.446Z,1.60
2019-06-08T13:54:34.423Z,1.63
2019-06-08T13:57:05.437Z,1.90
2019-06-08T13:59:38.842Z,1.67
2019-06-08T14:02:09.171Z,1.50
2019-06-08T14:04:41.029Z,1.70
2019-06-08T14:07:11.944Z,1.60
2019-06-08T14:09:42.896Z,1.60
2019-06-08T14:12:14.721Z,1.70
2019-06-08T14:14:47.408Z,1.60
2019-06-08T14:17:20.250Z,1.57
2019-06-08T14:19:51.706Z,1.70
2019-06-08T14:22:23.411Z,1.30
2019-06-08T14:24:55.528Z,1.40
2019-06-08T14:27:28.539Z,1.70
2019-06-08T14:29:58.655Z,1.53
2019-06-08T14:32:29.681Z,1.80
2019-06-08T14:35:02.797Z,1.70
2019-06-08T14:37:33.064Z,1.93
2019-06-08T14:40:05.020Z,1.70
2019-06-08T14:42:38.217Z,1.70
2019-06-08T14:45:10.868Z,1.67
2019-06-08T14:47:41.980Z,1.60
2019-06-08T14:50:13.012Z,1.40
2019-06-08T14:52:43.664Z,1.53
2019-06-08T14:55:14.876Z,1.67
2019-06-08T14:57:48.043Z,1.93
2019-06-08T15:00:24.103Z,1.80
2019-06-08T15:02:55.438Z,1.70
2019-06-08T15:05:28.895Z,1.97
2019-06-08T15:08:00.909Z,1.77
2019-06-08T15:10:33.836Z,1.70
2019-06-08T15:13:04.587Z,1.90
2019-06-08T15:15:35.255Z,1.87
2019-06-08T15:18:08.424Z,1.90
2019-06-08T15:20:38.658Z,1.90
2019-06-08T15:23:09.382Z,1.40
2019-06-08T15:25:40.377Z,1.80
2019-06-08T15:28:11.171Z,1.97
2019-06-08T15:30:42.175Z,1.83
2019-06-08T15:33:13.290Z,1.87
2019-06-08T15:35:43.987Z,1.77
2019-06-08T15:38:14.915Z,1.93
2019-06-08T15:40:47.792Z,1.80
2019-06-08T15:43:19.129Z,1.80
2019-06-08T15:45:51.401Z,1.63
2019-06-08T15:48:22.496Z,1.70
2019-06-08T15:50:53.205Z,2.10
2019-06-08T15:53:24.348Z,1.90
2019-06-08T15:55:55.386Z,1.70
2019-06-08T15:58:27.477Z,1.77
2019-06-08T16:00:58.716Z,2.00
2019-06-08T16:03:29.438Z,1.80
2019-06-08T16:06:00.415Z,1.80
2019-06-08T16:08:32.302Z,1.77
2019-06-08T16:11:03.180Z,1.60
2019-06-08T16:13:34.762Z,1.83
2019-06-08T16:16:05.800Z,1.70
2019-06-08T16:18:36.759Z,1.80
2019-06-08T16:21:07.699Z,1.57
2019-06-08T16:23:38.642Z,1.77
2019-06-08T16:26:09.614Z,1.80
2019-06-08T16:28:40.611Z,1.90
2019-06-08T16:31:11.346Z,2.10
2019-06-08T16:33:44.136Z,1.73
2019-06-08T16:36:14.557Z,1.80
2019-06-08T16:38:45.471Z,1.90
2019-06-08T16:41:16.459Z,2.03
2019-06-08T16:43:47.200Z,1.70
2019-06-08T16:46:18.153Z,1.90
2019-06-08T16:48:49.096Z,1.83
2019-06-08T16:51:20.037Z,1.97
2019-06-08T16:53:51.074Z,2.10
2019-06-08T16:56:22.024Z,1.90
2019-06-08T16:58:53.074Z,1.70
2019-06-08T17:01:23.963Z,1.90
2019-06-08T17:03:54.952Z,2.10
2019-06-08T17:06:25.652Z,2.00
2019-06-08T17:08:56.332Z,1.90
2019-06-08T17:11:27.048Z,2.10
2019-06-08T17:13:58.022Z,2.10
2019-06-08T17:16:29.903Z,1.70
2019-06-08T17:19:02.787Z,1.80
2019-06-08T17:21:34.246Z,1.90
2019-06-08T17:24:05.353Z,1.97
2019-06-08T17:26:36.950Z,2.00
2019-06-08T17:29:08.324Z,2.00
2019-06-08T17:31:39.335Z,2.27
2019-06-08T17:34:10.046Z,2.20
2019-06-08T17:36:41.031Z,1.93
2019-06-08T17:39:11.725Z,2.10
2019-06-08T17:41:42.765Z,2.00
2019-06-08T17:44:13.678Z,1.90
2019-06-08T17:46:44.709Z,1.73
2019-06-08T17:49:15.425Z,2.03
2019-06-08T17:51:46.093Z,2.13
2019-06-08T17:54:17.048Z,1.60
2019-06-08T17:56:48.068Z,2.03
2019-06-08T17:59:19.092Z,2.13
2019-06-08T18:01:49.760Z,2.03
2019-06-08T18:04:21.621Z,2.07
2019-06-08T18:06:52.547Z,2.20
2019-06-08T18:09:23.478Z,2.13
2019-06-08T18:11:54.397Z,2.30
2019-06-08T18:14:27.963Z,2.13
2019-06-08T18:16:57.859Z,1.97
2019-06-08T18:19:31.094Z,1.93
2019-06-08T18:22:05.935Z,1.90
2019-06-08T18:24:34.571Z,1.97
2019-06-08T18:27:07.655Z,1.90
2019-06-08T18:29:39.585Z,2.10
2019-06-08T18:32:11.357Z,2.10
2019-06-08T18:34:44.922Z,1.80
2019-06-08T18:37:18.037Z,2.13
2019-06-08T18:39:49.661Z,2.20
2019-06-08T18:42:22.375Z,2.00
2019-06-08T18:44:53.324Z,2.30
2019-06-08T18:47:24.487Z,2.47
2019-06-08T18:49:57.459Z,2.50
2019-06-08T18:52:28.330Z,3.13
2019-06-08T18:54:59.184Z,2.47
2019-06-08T18:57:30.208Z,2.83
2019-06-08T19:00:08.151Z,2.50
2019-06-08T19:02:34.455Z,2.33
2019-06-08T19:05:08.420Z,2.23
2019-06-08T19:07:39.180Z,2.60
2019-06-08T19:10:10.714Z,2.57
2019-06-08T19:12:42.862Z,2.30
2019-06-08T19:15:17.846Z,2.43
2019-06-08T19:17:54.319Z,2.23
2019-06-08T19:20:20.756Z,2.47
2019-06-08T19:22:54.353Z,2.20
2019-06-08T19:25:24.157Z,2.60
2019-06-08T19:27:57.806Z,2.67
2019-06-08T19:30:28.261Z,2.60
2019-06-08T19:32:59.434Z,2.50
2019-06-08T19:35:30.147Z,3.27
2019-06-08T19:38:01.098Z,2.30
2019-06-08T19:40:32.999Z,3.57
2019-06-08T19:43:04.536Z,2.80
2019-06-08T19:45:35.218Z,3.03
2019-06-08T19:48:08.314Z,2.93
2019-06-08T19:50:40.146Z,3.23
2019-06-08T19:53:11.770Z,3.40
2019-06-08T19:55:43.149Z,3.13
2019-06-08T19:58:14.160Z,3.10
2019-06-08T20:00:48.580Z,4.13
2019-06-08T20:03:17.834Z,17.07
2019-06-08T20:05:50.574Z,15.40
2019-06-08T20:08:21.638Z,15.13
2019-06-08T20:10:53.403Z,5.20
2019-06-08T20:13:24.656Z,6.80
2019-06-08T20:15:59.612Z,5.90
2019-06-08T20:18:28.234Z,3.70
2019-06-08T20:20:59.150Z,3.97
2019-06-08T20:23:30.110Z,4.83
2019-06-08T20:26:00.980Z,5.70
2019-06-08T20:28:31.959Z,5.77
2019-06-08T20:31:02.923Z,4.47
2019-06-08T20:33:37.686Z,4.27
2019-06-08T20:36:08.778Z,5.60
2019-06-08T20:38:43.743Z,5.57
2019-06-08T20:41:12.447Z,5.80
2019-06-08T20:43:44.591Z,5.20
2019-06-08T20:46:17.123Z,5.10
2019-06-08T20:48:50.009Z,5.40
2019-06-08T20:51:20.850Z,6.13
2019-06-08T20:53:52.471Z,5.70
2019-06-08T20:56:23.930Z,5.47
2019-06-08T20:58:57.253Z,5.97
2019-06-08T21:01:27.593Z,5.97
2019-06-08T21:03:58.595Z,6.63
2019-06-08T21:06:29.383Z,6.23
2019-06-08T21:09:00.303Z,6.37
2019-06-08T21:11:32.747Z,6.20
2019-06-08T21:14:05.287Z,6.53
2019-06-08T21:16:38.182Z,6.10
2019-06-08T21:19:08.750Z,5.93
2019-06-08T21:21:39.719Z,5.93
2019-06-08T21:24:10.461Z,5.93
2019-06-08T21:26:41.704Z,5.77
2019-06-08T21:29:12.420Z,5.53
2019-06-08T21:31:44.329Z,5.87
2019-06-08T21:34:18.077Z,6.20
2019-06-08T21:36:49.817Z,5.70
2019-06-08T21:39:22.170Z,6.83
2019-06-08T21:41:54.958Z,6.63
2019-06-08T21:44:27.722Z,7.57
2019-06-08T21:47:01.343Z,7.97
2019-06-08T21:49:31.593Z,8.77
2019-06-08T21:52:02.309Z,7.73
2019-06-08T21:54:32.978Z,7.73
2019-06-08T21:57:06.698Z,9.03
2019-06-08T21:59:37.843Z,8.90
2019-06-08T22:02:09.695Z,9.10
2019-06-08T22:04:40.769Z,8.50
2019-06-08T22:07:11.729Z,8.77
2019-06-08T22:09:42.673Z,8.73
2019-06-08T22:12:14.509Z,8.33
2019-06-08T22:14:47.209Z,8.77
2019-06-08T22:17:18.847Z,7.97
2019-06-08T22:19:51.501Z,8.20
2019-06-08T22:22:22.849Z,8.23
2019-06-08T22:24:53.551Z,7.90
2019-06-08T22:27:27.171Z,8.20
2019-06-08T22:29:58.587Z,7.57
2019-06-08T22:32:30.298Z,7.10
2019-06-08T22:35:01.805Z,7.13
2019-06-08T22:37:33.337Z,6.87
2019-06-08T22:40:08.238Z,7.00
2019-06-08T22:42:38.965Z,5.87
2019-06-08T22:45:10.316Z,5.97
2019-06-08T22:47:41.055Z,5.83
2019-06-08T22:50:12.549Z,6.10
2019-06-08T22:52:43.460Z,6.00
2019-06-08T22:55:14.219Z,6.37
2019-06-08T22:57:44.929Z,5.73
2019-06-08T23:00:19.869Z,5.87
2019-06-08T23:02:48.719Z,5.63
2019-06-08T23:05:19.724Z,6.27
2019-06-08T23:07:51.654Z,6.00
2019-06-08T23:10:22.628Z,6.37
2019-06-08T23:12:54.336Z,5.87
2019-06-08T23:15:25.359Z,6.43
2019-06-08T23:17:59.271Z,5.90
2019-06-08T23:20:28.976Z,7.00
2019-06-08T23:23:01.280Z,6.53
2019-06-08T23:25:32.302Z,7.00
2019-06-08T23:28:03.632Z,6.67
2019-06-08T23:30:35.472Z,6.77
2019-06-08T23:33:11.036Z,6.80
2019-06-08T23:36:07.941Z,6.80
2019-06-08T23:38:11.213Z,6.67
2019-06-08T23:40:43.015Z,6.07
2019-06-08T23:43:14.024Z,6.53
2019-06-08T23:45:44.668Z,6.50
2019-06-08T23:48:17.337Z,6.13
2019-06-08T23:50:48.195Z,6.30
2019-06-08T23:53:18.890Z,6.47
2019-06-08T23:55:49.969Z,6.77
2019-06-08T23:58:22.118Z,6.17
